Accueil
METAR-TAF:

METAR-TAF

Aéroports :

Aéroport international de Palanga

Palanga, Lituanie

latitude: 55-55-12N, longitude: 021-03E, altitude: 10 m

Observation

Le bulletin a été fait il y a 30 minutes, à 03:20 UTC
Vent 5 kt de ouest, variant entre sud-ouest et nord-ouest
Température 14°C
Humidité 63%
Pression 1016 hPa
Visibilité 10 km ou plus
Nuages épars à une hauteur de 2900 ft

METAR: EYPA 130320Z 26005KT 220V310 9999 SCT029 14/07 Q1016

Heure: 06:50 (03:50 UTC)

Prévision

Le bulletin a été fait il y a 4 heures et 44 minutes, à 23:06 UTC
Prévision valable du 13 à 00 UTC au 13 à 24 UTC
Vent 6 kt de ouest/sud-ouest
Visibilité: 6000 m
Nuages épars à une hauteur de 2500 ft
Temporairement
du 13 à 02 UTC au 13 à 10 UTC
Nuages épars à une hauteur de 1500 ft, Cumulonimbus.

TAF: EYPA 122306Z 1300/1324 24006KT 6000 SCT025 TEMPO 1302/1310 SCT015CB

Observations et prévisions météorologiques de plus de 4000 aéroports (messages METAR et TAF).

Les stations disponibles sont représentées par des disques jaunes et rouges sur la carte.

Passer la souris dessus pour voir le nom de la station.

Cliquer dessus pour voir les observations et prévisions météorologiques.

Pour changer de carte: cliquez sur les boutons verts avec une croix noire pour zoomer, sur le bouton vert avec un tiret pour effectuer un zoom arrière, ou sur les flèches vertes pour les cartes adjacentes.


METAR-TAF: